sensor_id;sensor_type;location;lat;lon;timestamp;P1;durP1;ratioP1;P2;durP2;ratioP2
5454;SDS011;2750;49.050;9.250;2022-07-24T00:01:03;17.83;;;16.33;;
5454;SDS011;2750;49.050;9.250;2022-07-24T00:06:05;17.17;;;15.67;;
5454;SDS011;2750;49.050;9.250;2022-07-24T00:11:08;17.67;;;16.17;;
5454;SDS011;2750;49.050;9.250;2022-07-24T00:16:09;16.57;;;14.97;;
5454;SDS011;2750;49.050;9.250;2022-07-24T00:21:11;16.37;;;15.03;;
5454;SDS011;2750;49.050;9.250;2022-07-24T00:26:14;16.53;;;14.93;;
5454;SDS011;2750;49.050;9.250;2022-07-24T00:31:15;17.83;;;16.27;;
5454;SDS011;2750;49.050;9.250;2022-07-24T00:36:17;16.53;;;15.03;;
5454;SDS011;2750;49.050;9.250;2022-07-24T00:41:20;14.83;;;13.43;;
5454;SDS011;2750;49.050;9.250;2022-07-24T00:46:21;17.07;;;15.33;;
5454;SDS011;2750;49.050;9.250;2022-07-24T00:51:23;17.50;;;15.03;;
5454;SDS011;2750;49.050;9.250;2022-07-24T00:56:26;16.70;;;15.17;;
5454;SDS011;2750;49.050;9.250;2022-07-24T01:01:28;16.37;;;14.97;;
5454;SDS011;2750;49.050;9.250;2022-07-24T01:06:30;14.60;;;13.43;;
5454;SDS011;2750;49.050;9.250;2022-07-24T01:11:33;16.40;;;14.90;;
5454;SDS011;2750;49.050;9.250;2022-07-24T01:16:35;16.03;;;14.57;;
5454;SDS011;2750;49.050;9.250;2022-07-24T01:21:38;16.00;;;14.60;;
5454;SDS011;2750;49.050;9.250;2022-07-24T01:26:45;17.70;;;16.07;;
5454;SDS011;2750;49.050;9.250;2022-07-24T01:31:48;19.20;;;17.63;;
5454;SDS011;2750;49.050;9.250;2022-07-24T01:36:50;18.70;;;17.00;;
5454;SDS011;2750;49.050;9.250;2022-07-24T01:47:49;18.63;;;16.73;;
5454;SDS011;2750;49.050;9.250;2022-07-24T01:52:52;17.50;;;16.00;;
5454;SDS011;2750;49.050;9.250;2022-07-24T01:57:54;20.00;;;18.00;;
5454;SDS011;2750;49.050;9.250;2022-07-24T02:02:55;20.83;;;18.83;;
5454;SDS011;2750;49.050;9.250;2022-07-24T02:07:58;19.40;;;17.70;;
5454;SDS011;2750;49.050;9.250;2022-07-24T02:13:01;20.93;;;18.27;;
5454;SDS011;2750;49.050;9.250;2022-07-24T02:18:03;20.47;;;18.47;;
5454;SDS011;2750;49.050;9.250;2022-07-24T02:23:06;19.63;;;17.90;;
5454;SDS011;2750;49.050;9.250;2022-07-24T02:28:07;17.27;;;15.70;;
5454;SDS011;2750;49.050;9.250;2022-07-24T02:33:09;16.90;;;15.07;;
5454;SDS011;2750;49.050;9.250;2022-07-24T02:38:12;15.37;;;13.97;;
5454;SDS011;2750;49.050;9.250;2022-07-24T02:43:13;19.57;;;17.70;;
5454;SDS011;2750;49.050;9.250;2022-07-24T02:48:15;19.47;;;17.77;;
5454;SDS011;2750;49.050;9.250;2022-07-24T02:53:18;18.47;;;16.87;;
5454;SDS011;2750;49.050;9.250;2022-07-24T02:58:19;19.37;;;17.67;;
5454;SDS011;2750;49.050;9.250;2022-07-24T03:03:21;17.57;;;16.03;;
5454;SDS011;2750;49.050;9.250;2022-07-24T03:08:23;20.13;;;18.13;;
5454;SDS011;2750;49.050;9.250;2022-07-24T03:13:25;19.03;;;17.33;;
5454;SDS011;2750;49.050;9.250;2022-07-24T03:18:26;18.03;;;16.43;;
5454;SDS011;2750;49.050;9.250;2022-07-24T03:23:29;19.43;;;17.60;;
5454;SDS011;2750;49.050;9.250;2022-07-24T03:28:30;17.00;;;15.50;;
5454;SDS011;2750;49.050;9.250;2022-07-24T03:33:32;18.70;;;16.77;;
5454;SDS011;2750;49.050;9.250;2022-07-24T03:38:35;16.30;;;14.70;;
5454;SDS011;2750;49.050;9.250;2022-07-24T03:43:36;19.13;;;17.33;;
5454;SDS011;2750;49.050;9.250;2022-07-24T03:48:38;21.63;;;19.57;;
5454;SDS011;2750;49.050;9.250;2022-07-24T03:53:41;22.67;;;20.40;;
5454;SDS011;2750;49.050;9.250;2022-07-24T03:58:42;21.83;;;19.73;;
5454;SDS011;2750;49.050;9.250;2022-07-24T04:03:44;20.67;;;18.70;;
5454;SDS011;2750;49.050;9.250;2022-07-24T04:08:47;20.93;;;18.93;;
5454;SDS011;2750;49.050;9.250;2022-07-24T04:13:48;20.93;;;19.00;;
5454;SDS011;2750;49.050;9.250;2022-07-24T04:18:50;17.10;;;15.50;;
5454;SDS011;2750;49.050;9.250;2022-07-24T04:23:53;17.43;;;15.90;;
5454;SDS011;2750;49.050;9.250;2022-07-24T04:28:54;17.67;;;16.00;;
5454;SDS011;2750;49.050;9.250;2022-07-24T04:33:56;18.43;;;16.73;;
5454;SDS011;2750;49.050;9.250;2022-07-24T04:38:59;17.00;;;15.50;;
5454;SDS011;2750;49.050;9.250;2022-07-24T04:44:00;16.50;;;15.10;;
5454;SDS011;2750;49.050;9.250;2022-07-24T04:49:02;17.77;;;16.17;;
5454;SDS011;2750;49.050;9.250;2022-07-24T04:54:05;16.75;;;15.35;;
5454;SDS011;2750;49.050;9.250;2022-07-24T04:59:06;16.15;;;14.85;;
5454;SDS011;2750;49.050;9.250;2022-07-24T05:04:08;14.82;;;13.48;;
5454;SDS011;2750;49.050;9.250;2022-07-24T05:09:10;15.13;;;13.63;;
5454;SDS011;2750;49.050;9.250;2022-07-24T05:14:12;15.00;;;13.70;;
5454;SDS011;2750;49.050;9.250;2022-07-24T05:19:14;15.57;;;14.18;;
5454;SDS011;2750;49.050;9.250;2022-07-24T05:24:16;15.00;;;13.80;;
5454;SDS011;2750;49.050;9.250;2022-07-24T05:29:18;14.35;;;13.02;;
5454;SDS011;2750;49.050;9.250;2022-07-24T05:34:19;14.25;;;13.15;;
5454;SDS011;2750;49.050;9.250;2022-07-24T05:39:22;14.40;;;13.10;;
5454;SDS011;2750;49.050;9.250;2022-07-24T05:44:24;15.15;;;13.75;;
5454;SDS011;2750;49.050;9.250;2022-07-24T05:49:25;15.18;;;13.98;;
5454;SDS011;2750;49.050;9.250;2022-07-24T05:54:29;14.00;;;12.90;;
5454;SDS011;2750;49.050;9.250;2022-07-24T05:59:31;14.68;;;13.40;;
5454;SDS011;2750;49.050;9.250;2022-07-24T06:04:32;16.17;;;14.77;;
5454;SDS011;2750;49.050;9.250;2022-07-24T06:09:37;16.25;;;14.65;;
5454;SDS011;2750;49.050;9.250;2022-07-24T06:14:39;16.10;;;14.80;;
5454;SDS011;2750;49.050;9.250;2022-07-24T06:19:40;15.13;;;13.73;;
5454;SDS011;2750;49.050;9.250;2022-07-24T06:24:43;15.07;;;13.82;;
5454;SDS011;2750;49.050;9.250;2022-07-24T06:29:45;15.77;;;14.38;;
5454;SDS011;2750;49.050;9.250;2022-07-24T06:34:46;14.95;;;13.75;;
5454;SDS011;2750;49.050;9.250;2022-07-24T06:39:49;14.50;;;13.43;;
5454;SDS011;2750;49.050;9.250;2022-07-24T06:44:51;14.20;;;13.02;;
5454;SDS011;2750;49.050;9.250;2022-07-24T06:49:52;12.75;;;11.65;;
5454;SDS011;2750;49.050;9.250;2022-07-24T06:54:55;13.63;;;12.35;;
5454;SDS011;2750;49.050;9.250;2022-07-24T06:59:57;13.40;;;12.30;;
5454;SDS011;2750;49.050;9.250;2022-07-24T07:04:58;13.43;;;12.43;;
5454;SDS011;2750;49.050;9.250;2022-07-24T07:10:02;12.88;;;11.88;;
5454;SDS011;2750;49.050;9.250;2022-07-24T07:15:04;13.40;;;12.48;;
5454;SDS011;2750;49.050;9.250;2022-07-24T07:20:06;13.57;;;12.43;;
5454;SDS011;2750;49.050;9.250;2022-07-24T07:25:11;12.50;;;11.57;;
5454;SDS011;2750;49.050;9.250;2022-07-24T07:30:13;12.68;;;11.77;;
5454;SDS011;2750;49.050;9.250;2022-07-24T07:35:15;13.93;;;12.90;;
5454;SDS011;2750;49.050;9.250;2022-07-24T07:40:18;12.95;;;12.05;;
5454;SDS011;2750;49.050;9.250;2022-07-24T07:45:20;13.43;;;12.32;;
5454;SDS011;2750;49.050;9.250;2022-07-24T07:50:21;12.38;;;11.43;;
5454;SDS011;2750;49.050;9.250;2022-07-24T07:55:24;12.80;;;11.80;;
5454;SDS011;2750;49.050;9.250;2022-07-24T08:00:26;13.00;;;12.00;;
5454;SDS011;2750;49.050;9.250;2022-07-24T08:05:27;13.88;;;12.85;;
5454;SDS011;2750;49.050;9.250;2022-07-24T08:10:30;12.25;;;11.23;;
5454;SDS011;2750;49.050;9.250;2022-07-24T08:15:32;11.80;;;10.70;;
5454;SDS011;2750;49.050;9.250;2022-07-24T08:20:33;12.40;;;11.40;;
5454;SDS011;2750;49.050;9.250;2022-07-24T08:25:36;12.20;;;11.20;;
5454;SDS011;2750;49.050;9.250;2022-07-24T08:30:38;12.65;;;11.68;;
5454;SDS011;2750;49.050;9.250;2022-07-24T08:35:39;12.13;;;11.07;;
5454;SDS011;2750;49.050;9.250;2022-07-24T08:40:42;12.52;;;11.63;;
5454;SDS011;2750;49.050;9.250;2022-07-24T08:45:43;11.93;;;11.02;;
5454;SDS011;2750;49.050;9.250;2022-07-24T08:50:45;12.85;;;11.77;;
5454;SDS011;2750;49.050;9.250;2022-07-24T08:55:48;12.25;;;11.27;;
5454;SDS011;2750;49.050;9.250;2022-07-24T09:00:50;11.70;;;10.70;;
5454;SDS011;2750;49.050;9.250;2022-07-24T09:05:52;12.18;;;11.27;;
5454;SDS011;2750;49.050;9.250;2022-07-24T09:10:59;12.95;;;11.82;;
5454;SDS011;2750;49.050;9.250;2022-07-24T09:16:03;12.23;;;11.25;;
5454;SDS011;2750;49.050;9.250;2022-07-24T09:21:11;12.55;;;11.43;;
5454;SDS011;2750;49.050;9.250;2022-07-24T09:26:15;12.38;;;11.32;;
5454;SDS011;2750;49.050;9.250;2022-07-24T09:31:17;12.48;;;11.57;;
5454;SDS011;2750;49.050;9.250;2022-07-24T09:36:21;12.38;;;11.27;;
5454;SDS011;2750;49.050;9.250;2022-07-24T09:41:26;12.50;;;11.32;;
5454;SDS011;2750;49.050;9.250;2022-07-24T09:46:29;11.68;;;10.65;;
5454;SDS011;2750;49.050;9.250;2022-07-24T09:51:31;12.55;;;11.35;;
5454;SDS011;2750;49.050;9.250;2022-07-24T09:56:34;12.05;;;10.93;;
5454;SDS011;2750;49.050;9.250;2022-07-24T10:01:36;10.50;;;9.60;;
5454;SDS011;2750;49.050;9.250;2022-07-24T10:06:45;10.55;;;9.75;;
5454;SDS011;2750;49.050;9.250;2022-07-24T10:11:49;10.95;;;9.95;;
5454;SDS011;2750;49.050;9.250;2022-07-24T10:16:55;10.60;;;9.63;;
5454;SDS011;2750;49.050;9.250;2022-07-24T10:22:08;10.80;;;9.73;;
5454;SDS011;2750;49.050;9.250;2022-07-24T10:27:15;11.15;;;10.10;;
5454;SDS011;2750;49.050;9.250;2022-07-24T10:32:24;10.38;;;9.43;;
5454;SDS011;2750;49.050;9.250;2022-07-24T10:37:28;9.55;;;8.73;;
5454;SDS011;2750;49.050;9.250;2022-07-24T10:42:35;9.63;;;8.93;;
5454;SDS011;2750;49.050;9.250;2022-07-24T10:48:26;7.75;;;7.13;;
5454;SDS011;2750;49.050;9.250;2022-07-24T10:53:31;7.88;;;7.05;;
5454;SDS011;2750;49.050;9.250;2022-07-24T10:58:52;9.40;;;8.57;;
5454;SDS011;2750;49.050;9.250;2022-07-24T11:03:54;9.13;;;8.45;;
5454;SDS011;2750;49.050;9.250;2022-07-24T11:08:57;9.32;;;8.52;;
5454;SDS011;2750;49.050;9.250;2022-07-24T11:14:04;9.25;;;8.55;;
5454;SDS011;2750;49.050;9.250;2022-07-24T11:19:25;9.43;;;8.63;;
5454;SDS011;2750;49.050;9.250;2022-07-24T11:24:28;9.35;;;8.65;;
5454;SDS011;2750;49.050;9.250;2022-07-24T11:29:32;8.98;;;8.27;;
5454;SDS011;2750;49.050;9.250;2022-07-24T11:34:35;9.82;;;9.05;;
5454;SDS011;2750;49.050;9.250;2022-07-24T11:39:38;10.20;;;9.32;;
5454;SDS011;2750;49.050;9.250;2022-07-24T11:44:42;10.45;;;9.55;;
5454;SDS011;2750;49.050;9.250;2022-07-24T11:49:45;9.50;;;8.60;;
5454;SDS011;2750;49.050;9.250;2022-07-24T11:54:48;9.38;;;8.48;;
5454;SDS011;2750;49.050;9.250;2022-07-24T11:59:53;9.30;;;8.55;;
5454;SDS011;2750;49.050;9.250;2022-07-24T12:04:55;9.88;;;9.07;;
5454;SDS011;2750;49.050;9.250;2022-07-24T12:09:57;9.85;;;8.95;;
5454;SDS011;2750;49.050;9.250;2022-07-24T12:15:02;9.38;;;8.57;;
5454;SDS011;2750;49.050;9.250;2022-07-24T12:20:06;10.02;;;9.13;;
5454;SDS011;2750;49.050;9.250;2022-07-24T12:25:09;9.75;;;8.95;;
5454;SDS011;2750;49.050;9.250;2022-07-24T12:30:19;10.30;;;9.50;;
5454;SDS011;2750;49.050;9.250;2022-07-24T12:35:24;10.93;;;9.40;;
5454;SDS011;2750;49.050;9.250;2022-07-24T12:40:31;9.10;;;8.30;;
5454;SDS011;2750;49.050;9.250;2022-07-24T12:45:35;9.05;;;8.25;;
5454;SDS011;2750;49.050;9.250;2022-07-24T12:50:37;9.50;;;8.70;;
5454;SDS011;2750;49.050;9.250;2022-07-24T12:55:39;9.65;;;8.85;;
5454;SDS011;2750;49.050;9.250;2022-07-24T13:00:42;10.02;;;9.23;;
5454;SDS011;2750;49.050;9.250;2022-07-24T13:05:57;8.82;;;8.15;;
5454;SDS011;2750;49.050;9.250;2022-07-24T13:10:58;10.32;;;9.40;;
5454;SDS011;2750;49.050;9.250;2022-07-24T13:16:01;9.40;;;8.70;;
5454;SDS011;2750;49.050;9.250;2022-07-24T13:21:03;9.82;;;9.02;;
5454;SDS011;2750;49.050;9.250;2022-07-24T13:26:05;9.00;;;8.30;;
5454;SDS011;2750;49.050;9.250;2022-07-24T13:31:08;9.77;;;8.88;;
5454;SDS011;2750;49.050;9.250;2022-07-24T13:36:09;9.35;;;8.55;;
5454;SDS011;2750;49.050;9.250;2022-07-24T13:41:12;9.98;;;9.18;;
5454;SDS011;2750;49.050;9.250;2022-07-24T13:46:16;9.13;;;8.32;;
5454;SDS011;2750;49.050;9.250;2022-07-24T13:51:18;9.45;;;8.65;;
5454;SDS011;2750;49.050;9.250;2022-07-24T13:56:20;9.23;;;8.45;;
5454;SDS011;2750;49.050;9.250;2022-07-24T14:01:24;9.60;;;8.90;;
5454;SDS011;2750;49.050;9.250;2022-07-24T14:06:26;9.10;;;8.50;;
5454;SDS011;2750;49.050;9.250;2022-07-24T14:11:32;10.00;;;9.10;;
5454;SDS011;2750;49.050;9.250;2022-07-24T14:16:35;9.07;;;8.38;;
5454;SDS011;2750;49.050;9.250;2022-07-24T14:21:37;9.57;;;8.73;;
5454;SDS011;2750;49.050;9.250;2022-07-24T14:26:39;9.88;;;9.13;;
5454;SDS011;2750;49.050;9.250;2022-07-24T14:31:42;9.90;;;9.05;;
5454;SDS011;2750;49.050;9.250;2022-07-24T14:36:44;9.35;;;8.70;;
5454;SDS011;2750;49.050;9.250;2022-07-24T14:41:45;8.85;;;8.25;;
5454;SDS011;2750;49.050;9.250;2022-07-24T14:46:48;8.82;;;8.02;;
5454;SDS011;2750;49.050;9.250;2022-07-24T14:51:50;9.48;;;8.57;;
5454;SDS011;2750;49.050;9.250;2022-07-24T14:56:52;9.07;;;8.27;;
5454;SDS011;2750;49.050;9.250;2022-07-24T15:01:55;9.85;;;9.15;;
5454;SDS011;2750;49.050;9.250;2022-07-24T15:06:56;8.70;;;7.97;;
5454;SDS011;2750;49.050;9.250;2022-07-24T15:11:58;9.57;;;8.73;;
5454;SDS011;2750;49.050;9.250;2022-07-24T15:17:01;8.80;;;8.20;;
5454;SDS011;2750;49.050;9.250;2022-07-24T15:22:02;9.05;;;8.32;;
5454;SDS011;2750;49.050;9.250;2022-07-24T15:27:04;9.50;;;8.88;;
5454;SDS011;2750;49.050;9.250;2022-07-24T15:32:07;8.93;;;8.32;;
5454;SDS011;2750;49.050;9.250;2022-07-24T15:37:08;8.93;;;8.27;;
5454;SDS011;2750;49.050;9.250;2022-07-24T15:42:10;9.48;;;8.60;;
5454;SDS011;2750;49.050;9.250;2022-07-24T15:47:13;9.00;;;8.30;;
5454;SDS011;2750;49.050;9.250;2022-07-24T15:52:14;9.60;;;8.90;;
5454;SDS011;2750;49.050;9.250;2022-07-24T15:57:16;8.75;;;8.05;;
5454;SDS011;2750;49.050;9.250;2022-07-24T16:02:18;10.50;;;9.60;;
5454;SDS011;2750;49.050;9.250;2022-07-24T16:07:22;8.82;;;8.02;;
5454;SDS011;2750;49.050;9.250;2022-07-24T16:12:23;9.52;;;8.73;;
5454;SDS011;2750;49.050;9.250;2022-07-24T16:17:27;9.82;;;9.02;;
5454;SDS011;2750;49.050;9.250;2022-07-24T16:22:28;9.60;;;8.23;;
5454;SDS011;2750;49.050;9.250;2022-07-24T16:27:30;9.45;;;8.65;;
5454;SDS011;2750;49.050;9.250;2022-07-24T16:32:33;9.20;;;8.40;;
5454;SDS011;2750;49.050;9.250;2022-07-24T16:37:34;9.07;;;8.40;;
5454;SDS011;2750;49.050;9.250;2022-07-24T16:42:36;8.98;;;8.27;;
5454;SDS011;2750;49.050;9.250;2022-07-24T16:47:39;9.15;;;8.50;;
5454;SDS011;2750;49.050;9.250;2022-07-24T16:52:40;8.60;;;7.90;;
5454;SDS011;2750;49.050;9.250;2022-07-24T16:57:41;8.35;;;7.75;;
5454;SDS011;2750;49.050;9.250;2022-07-24T17:02:44;9.10;;;8.25;;
5454;SDS011;2750;49.050;9.250;2022-07-24T17:07:46;9.15;;;8.45;;
5454;SDS011;2750;49.050;9.250;2022-07-24T17:12:47;8.57;;;7.97;;
5454;SDS011;2750;49.050;9.250;2022-07-24T17:17:50;9.63;;;8.82;;
5454;SDS011;2750;49.050;9.250;2022-07-24T17:23:04;9.25;;;8.50;;
5454;SDS011;2750;49.050;9.250;2022-07-24T17:28:07;9.73;;;9.02;;
5454;SDS011;2750;49.050;9.250;2022-07-24T17:33:12;9.43;;;8.82;;
5454;SDS011;2750;49.050;9.250;2022-07-24T17:38:14;8.82;;;8.23;;
5454;SDS011;2750;49.050;9.250;2022-07-24T17:43:15;8.85;;;8.25;;
5454;SDS011;2750;49.050;9.250;2022-07-24T17:48:18;10.07;;;9.32;;
5454;SDS011;2750;49.050;9.250;2022-07-24T17:53:20;9.07;;;8.48;;
5454;SDS011;2750;49.050;9.250;2022-07-24T17:58:22;9.07;;;8.38;;
5454;SDS011;2750;49.050;9.250;2022-07-24T18:03:25;9.35;;;8.65;;
5454;SDS011;2750;49.050;9.250;2022-07-24T18:08:26;9.20;;;8.50;;
5454;SDS011;2750;49.050;9.250;2022-07-24T18:13:27;9.32;;;8.45;;
5454;SDS011;2750;49.050;9.250;2022-07-24T18:18:32;9.13;;;8.35;;
5454;SDS011;2750;49.050;9.250;2022-07-24T18:23:33;9.93;;;9.05;;
5454;SDS011;2750;49.050;9.250;2022-07-24T18:28:36;8.93;;;8.13;;
5454;SDS011;2750;49.050;9.250;2022-07-24T18:33:39;10.02;;;9.02;;
5454;SDS011;2750;49.050;9.250;2022-07-24T18:38:41;10.23;;;9.23;;
5454;SDS011;2750;49.050;9.250;2022-07-24T18:43:42;9.63;;;8.82;;
5454;SDS011;2750;49.050;9.250;2022-07-24T18:48:45;9.02;;;8.18;;
5454;SDS011;2750;49.050;9.250;2022-07-24T18:53:47;10.05;;;9.18;;
5454;SDS011;2750;49.050;9.250;2022-07-24T18:58:51;9.18;;;8.48;;
5454;SDS011;2750;49.050;9.250;2022-07-24T19:03:54;10.10;;;9.30;;
5454;SDS011;2750;49.050;9.250;2022-07-24T19:08:55;10.10;;;9.10;;
5454;SDS011;2750;49.050;9.250;2022-07-24T19:13:57;11.73;;;8.70;;
5454;SDS011;2750;49.050;9.250;2022-07-24T19:19:01;10.13;;;9.23;;
5454;SDS011;2750;49.050;9.250;2022-07-24T19:24:03;10.00;;;9.10;;
5454;SDS011;2750;49.050;9.250;2022-07-24T19:29:05;9.57;;;8.68;;
5454;SDS011;2750;49.050;9.250;2022-07-24T19:34:08;11.63;;;9.07;;
5454;SDS011;2750;49.050;9.250;2022-07-24T19:39:10;10.10;;;8.98;;
5454;SDS011;2750;49.050;9.250;2022-07-24T19:44:11;9.60;;;8.88;;
5454;SDS011;2750;49.050;9.250;2022-07-24T19:49:16;10.57;;;9.57;;
5454;SDS011;2750;49.050;9.250;2022-07-24T19:54:18;13.27;;;9.73;;
5454;SDS011;2750;49.050;9.250;2022-07-24T19:59:21;10.45;;;9.45;;
5454;SDS011;2750;49.050;9.250;2022-07-24T20:04:24;11.68;;;9.75;;
5454;SDS011;2750;49.050;9.250;2022-07-24T20:09:26;9.75;;;8.85;;
5454;SDS011;2750;49.050;9.250;2022-07-24T20:14:27;11.63;;;10.40;;
5454;SDS011;2750;49.050;9.250;2022-07-24T20:19:30;14.73;;;10.45;;
5454;SDS011;2750;49.050;9.250;2022-07-24T20:24:31;11.10;;;9.98;;
5454;SDS011;2750;49.050;9.250;2022-07-24T20:29:34;10.32;;;9.30;;
5454;SDS011;2750;49.050;9.250;2022-07-24T20:34:36;12.18;;;9.70;;
5454;SDS011;2750;49.050;9.250;2022-07-24T20:39:38;14.93;;;10.65;;
5454;SDS011;2750;49.050;9.250;2022-07-24T20:44:39;13.98;;;10.90;;
5454;SDS011;2750;49.050;9.250;2022-07-24T20:49:42;12.02;;;9.48;;
5454;SDS011;2750;49.050;9.250;2022-07-24T20:54:44;10.95;;;9.90;;
5454;SDS011;2750;49.050;9.250;2022-07-24T20:59:46;10.45;;;9.65;;
5454;SDS011;2750;49.050;9.250;2022-07-24T21:04:48;10.60;;;9.23;;
5454;SDS011;2750;49.050;9.250;2022-07-24T21:09:50;10.32;;;9.50;;
5454;SDS011;2750;49.050;9.250;2022-07-24T21:14:52;10.18;;;9.18;;
5454;SDS011;2750;49.050;9.250;2022-07-24T21:19:55;10.93;;;9.95;;
5454;SDS011;2750;49.050;9.250;2022-07-24T21:24:56;10.32;;;9.38;;
5454;SDS011;2750;49.050;9.250;2022-07-24T21:29:58;10.80;;;9.90;;
5454;SDS011;2750;49.050;9.250;2022-07-24T21:35:00;12.07;;;10.48;;
5454;SDS011;2750;49.050;9.250;2022-07-24T21:40:03;11.35;;;10.23;;
5454;SDS011;2750;49.050;9.250;2022-07-24T21:45:05;11.32;;;10.32;;
5454;SDS011;2750;49.050;9.250;2022-07-24T21:50:09;11.73;;;10.27;;
5454;SDS011;2750;49.050;9.250;2022-07-24T21:55:11;12.30;;;10.98;;
5454;SDS011;2750;49.050;9.250;2022-07-24T22:00:13;14.73;;;11.48;;
5454;SDS011;2750;49.050;9.250;2022-07-24T22:05:16;13.27;;;11.00;;
5454;SDS011;2750;49.050;9.250;2022-07-24T22:10:18;12.17;;;11.00;;
5454;SDS011;2750;49.050;9.250;2022-07-24T22:15:19;12.43;;;11.20;;
5454;SDS011;2750;49.050;9.250;2022-07-24T22:20:22;13.25;;;11.75;;
5454;SDS011;2750;49.050;9.250;2022-07-24T22:25:24;12.63;;;11.53;;
5454;SDS011;2750;49.050;9.250;2022-07-24T22:30:26;11.70;;;10.70;;
5454;SDS011;2750;49.050;9.250;2022-07-24T22:35:29;15.73;;;12.00;;
5454;SDS011;2750;49.050;9.250;2022-07-24T22:40:31;13.43;;;12.07;;
5454;SDS011;2750;49.050;9.250;2022-07-24T22:45:32;12.93;;;11.73;;
5454;SDS011;2750;49.050;9.250;2022-07-24T22:50:36;13.70;;;12.30;;
5454;SDS011;2750;49.050;9.250;2022-07-24T22:55:38;13.33;;;11.80;;
5454;SDS011;2750;49.050;9.250;2022-07-24T23:00:39;12.20;;;11.20;;
5454;SDS011;2750;49.050;9.250;2022-07-24T23:05:42;11.80;;;10.80;;
5454;SDS011;2750;49.050;9.250;2022-07-24T23:10:44;12.70;;;11.47;;
5454;SDS011;2750;49.050;9.250;2022-07-24T23:15:45;11.50;;;10.60;;
5454;SDS011;2750;49.050;9.250;2022-07-24T23:20:48;11.87;;;10.73;;
5454;SDS011;2750;49.050;9.250;2022-07-24T23:25:50;11.90;;;10.90;;
5454;SDS011;2750;49.050;9.250;2022-07-24T23:30:51;11.83;;;10.83;;
5454;SDS011;2750;49.050;9.250;2022-07-24T23:35:54;15.53;;;13.87;;
5454;SDS011;2750;49.050;9.250;2022-07-24T23:40:55;14.87;;;13.47;;
5454;SDS011;2750;49.050;9.250;2022-07-24T23:45:57;14.37;;;13.17;;
5454;SDS011;2750;49.050;9.250;2022-07-24T23:51:02;15.17;;;13.70;;
5454;SDS011;2750;49.050;9.250;2022-07-24T23:56:04;15.67;;;14.00;;
